sensor_id;sensor_type;location;lat;lon;timestamp;P1;durP1;ratioP1;P2;durP2;ratioP2
18447;SDS011;9353;50.956;6.920;2022-11-22T00:01:35;1.97;;;1.87;;
18447;SDS011;9353;50.956;6.920;2022-11-22T00:04:02;3.87;;;2.23;;
18447;SDS011;9353;50.956;6.920;2022-11-22T00:06:29;2.60;;;2.37;;
18447;SDS011;9353;50.956;6.920;2022-11-22T00:08:57;2.83;;;2.00;;
18447;SDS011;9353;50.956;6.920;2022-11-22T00:11:25;3.07;;;2.07;;
18447;SDS011;9353;50.956;6.920;2022-11-22T00:13:52;2.00;;;1.90;;
18447;SDS011;9353;50.956;6.920;2022-11-22T00:16:19;3.23;;;2.03;;
18447;SDS011;9353;50.956;6.920;2022-11-22T00:18:46;2.47;;;2.27;;
18447;SDS011;9353;50.956;6.920;2022-11-22T00:21:13;3.67;;;2.10;;
18447;SDS011;9353;50.956;6.920;2022-11-22T00:23:40;2.10;;;1.97;;
18447;SDS011;9353;50.956;6.920;2022-11-22T00:26:08;3.53;;;2.60;;
18447;SDS011;9353;50.956;6.920;2022-11-22T00:28:36;2.27;;;2.07;;
18447;SDS011;9353;50.956;6.920;2022-11-22T00:31:03;2.37;;;2.10;;
18447;SDS011;9353;50.956;6.920;2022-11-22T00:33:30;3.67;;;2.53;;
18447;SDS011;9353;50.956;6.920;2022-11-22T00:35:57;3.97;;;2.00;;
18447;SDS011;9353;50.956;6.920;2022-11-22T00:38:25;3.23;;;1.93;;
18447;SDS011;9353;50.956;6.920;2022-11-22T00:40:52;2.30;;;2.10;;
18447;SDS011;9353;50.956;6.920;2022-11-22T00:43:20;2.23;;;2.03;;
18447;SDS011;9353;50.956;6.920;2022-11-22T00:45:47;2.83;;;2.53;;
18447;SDS011;9353;50.956;6.920;2022-11-22T00:48:14;2.23;;;2.00;;
18447;SDS011;9353;50.956;6.920;2022-11-22T00:50:41;2.33;;;2.13;;
18447;SDS011;9353;50.956;6.920;2022-11-22T00:53:08;2.03;;;1.93;;
18447;SDS011;9353;50.956;6.920;2022-11-22T00:55:35;2.47;;;2.27;;
18447;SDS011;9353;50.956;6.920;2022-11-22T00:58:03;2.53;;;1.77;;
18447;SDS011;9353;50.956;6.920;2022-11-22T01:00:31;3.47;;;2.33;;
18447;SDS011;9353;50.956;6.920;2022-11-22T01:02:58;2.77;;;2.00;;
18447;SDS011;9353;50.956;6.920;2022-11-22T01:05:25;2.43;;;2.17;;
18447;SDS011;9353;50.956;6.920;2022-11-22T01:07:52;2.43;;;2.23;;
18447;SDS011;9353;50.956;6.920;2022-11-22T01:10:19;2.10;;;2.00;;
18447;SDS011;9353;50.956;6.920;2022-11-22T01:12:47;2.67;;;1.87;;
18447;SDS011;9353;50.956;6.920;2022-11-22T01:15:14;2.47;;;2.33;;
18447;SDS011;9353;50.956;6.920;2022-11-22T01:17:42;2.77;;;1.93;;
18447;SDS011;9353;50.956;6.920;2022-11-22T01:20:10;2.30;;;2.07;;
18447;SDS011;9353;50.956;6.920;2022-11-22T01:22:37;2.53;;;2.33;;
18447;SDS011;9353;50.956;6.920;2022-11-22T01:25:04;2.43;;;2.23;;
18447;SDS011;9353;50.956;6.920;2022-11-22T01:27:32;2.00;;;1.90;;
18447;SDS011;9353;50.956;6.920;2022-11-22T01:29:59;2.40;;;1.97;;
18447;SDS011;9353;50.956;6.920;2022-11-22T01:32:26;3.00;;;1.90;;
18447;SDS011;9353;50.956;6.920;2022-11-22T01:34:54;2.00;;;1.90;;
18447;SDS011;9353;50.956;6.920;2022-11-22T01:37:22;2.50;;;2.30;;
18447;SDS011;9353;50.956;6.920;2022-11-22T01:39:49;2.40;;;1.90;;
18447;SDS011;9353;50.956;6.920;2022-11-22T01:42:16;2.43;;;2.17;;
18447;SDS011;9353;50.956;6.920;2022-11-22T01:44:43;2.80;;;2.53;;
18447;SDS011;9353;50.956;6.920;2022-11-22T01:47:10;2.87;;;2.63;;
18447;SDS011;9353;50.956;6.920;2022-11-22T01:49:39;2.43;;;2.00;;
18447;SDS011;9353;50.956;6.920;2022-11-22T01:52:10;2.40;;;2.20;;
18447;SDS011;9353;50.956;6.920;2022-11-22T01:54:38;2.17;;;2.07;;
18447;SDS011;9353;50.956;6.920;2022-11-22T01:57:07;3.40;;;2.47;;
18447;SDS011;9353;50.956;6.920;2022-11-22T01:59:36;2.30;;;2.20;;
18447;SDS011;9353;50.956;6.920;2022-11-22T02:02:04;2.20;;;2.00;;
18447;SDS011;9353;50.956;6.920;2022-11-22T02:04:31;2.33;;;1.90;;
18447;SDS011;9353;50.956;6.920;2022-11-22T02:07:01;5.33;;;2.10;;
18447;SDS011;9353;50.956;6.920;2022-11-22T02:09:30;3.10;;;1.77;;
18447;SDS011;9353;50.956;6.920;2022-11-22T02:11:59;3.07;;;2.10;;
18447;SDS011;9353;50.956;6.920;2022-11-22T02:14:27;5.53;;;2.77;;
18447;SDS011;9353;50.956;6.920;2022-11-22T02:16:54;2.73;;;2.53;;
18447;SDS011;9353;50.956;6.920;2022-11-22T02:19:22;7.90;;;4.20;;
18447;SDS011;9353;50.956;6.920;2022-11-22T02:21:53;4.43;;;4.10;;
18447;SDS011;9353;50.956;6.920;2022-11-22T02:24:22;7.47;;;4.97;;
18447;SDS011;9353;50.956;6.920;2022-11-22T02:26:52;4.63;;;4.23;;
18447;SDS011;9353;50.956;6.920;2022-11-22T02:29:19;4.00;;;3.57;;
18447;SDS011;9353;50.956;6.920;2022-11-22T02:31:46;4.10;;;3.70;;
18447;SDS011;9353;50.956;6.920;2022-11-22T02:34:13;3.50;;;2.93;;
18447;SDS011;9353;50.956;6.920;2022-11-22T02:36:41;4.87;;;2.90;;
18447;SDS011;9353;50.956;6.920;2022-11-22T02:39:10;5.30;;;2.70;;
18447;SDS011;9353;50.956;6.920;2022-11-22T02:41:38;3.17;;;2.40;;
18447;SDS011;9353;50.956;6.920;2022-11-22T02:44:07;3.17;;;1.93;;
18447;SDS011;9353;50.956;6.920;2022-11-22T02:46:35;3.80;;;2.17;;
18447;SDS011;9353;50.956;6.920;2022-11-22T02:49:10;4.53;;;1.63;;
18447;SDS011;9353;50.956;6.920;2022-11-22T02:51:37;2.50;;;1.70;;
18447;SDS011;9353;50.956;6.920;2022-11-22T02:54:04;1.40;;;1.30;;
18447;SDS011;9353;50.956;6.920;2022-11-22T02:56:31;3.20;;;1.50;;
18447;SDS011;9353;50.956;6.920;2022-11-22T02:58:58;1.77;;;1.37;;
18447;SDS011;9353;50.956;6.920;2022-11-22T03:01:26;2.60;;;1.70;;
18447;SDS011;9353;50.956;6.920;2022-11-22T03:03:54;3.63;;;1.37;;
18447;SDS011;9353;50.956;6.920;2022-11-22T03:06:21;1.73;;;1.50;;
18447;SDS011;9353;50.956;6.920;2022-11-22T03:08:49;1.37;;;1.30;;
18447;SDS011;9353;50.956;6.920;2022-11-22T03:11:16;1.43;;;1.33;;
18447;SDS011;9353;50.956;6.920;2022-11-22T03:13:43;2.03;;;1.60;;
18447;SDS011;9353;50.956;6.920;2022-11-22T03:16:10;2.20;;;1.40;;
18447;SDS011;9353;50.956;6.920;2022-11-22T03:18:38;1.53;;;1.40;;
18447;SDS011;9353;50.956;6.920;2022-11-22T03:21:06;2.57;;;1.70;;
18447;SDS011;9353;50.956;6.920;2022-11-22T03:23:34;2.73;;;1.47;;
18447;SDS011;9353;50.956;6.920;2022-11-22T03:26:05;1.67;;;1.37;;
18447;SDS011;9353;50.956;6.920;2022-11-22T03:28:32;1.33;;;1.30;;
18447;SDS011;9353;50.956;6.920;2022-11-22T03:30:59;2.37;;;1.50;;
18447;SDS011;9353;50.956;6.920;2022-11-22T03:33:26;3.97;;;1.70;;
18447;SDS011;9353;50.956;6.920;2022-11-22T03:35:55;4.50;;;1.37;;
18447;SDS011;9353;50.956;6.920;2022-11-22T03:38:22;4.80;;;1.77;;
18447;SDS011;9353;50.956;6.920;2022-11-22T03:40:50;1.73;;;1.50;;
18447;SDS011;9353;50.956;6.920;2022-11-22T03:43:17;3.10;;;1.70;;
18447;SDS011;9353;50.956;6.920;2022-11-22T03:45:44;3.50;;;1.47;;
18447;SDS011;9353;50.956;6.920;2022-11-22T03:48:12;4.80;;;2.10;;
18447;SDS011;9353;50.956;6.920;2022-11-22T03:50:39;4.53;;;1.50;;
18447;SDS011;9353;50.956;6.920;2022-11-22T03:53:08;4.63;;;1.97;;
18447;SDS011;9353;50.956;6.920;2022-11-22T03:55:35;2.87;;;1.50;;
18447;SDS011;9353;50.956;6.920;2022-11-22T03:58:02;4.17;;;2.00;;
18447;SDS011;9353;50.956;6.920;2022-11-22T04:00:29;2.63;;;2.10;;
18447;SDS011;9353;50.956;6.920;2022-11-22T04:02:57;2.73;;;1.50;;
18447;SDS011;9353;50.956;6.920;2022-11-22T04:05:24;2.50;;;1.50;;
18447;SDS011;9353;50.956;6.920;2022-11-22T04:07:51;7.83;;;1.63;;
18447;SDS011;9353;50.956;6.920;2022-11-22T04:10:21;3.63;;;2.10;;
18447;SDS011;9353;50.956;6.920;2022-11-22T04:12:48;2.97;;;1.97;;
18447;SDS011;9353;50.956;6.920;2022-11-22T04:15:16;4.83;;;3.73;;
18447;SDS011;9353;50.956;6.920;2022-11-22T04:17:42;2.90;;;1.97;;
18447;SDS011;9353;50.956;6.920;2022-11-22T04:20:13;6.33;;;2.10;;
18447;SDS011;9353;50.956;6.920;2022-11-22T04:22:59;4.13;;;1.60;;
18447;SDS011;9353;50.956;6.920;2022-11-22T04:25:29;7.30;;;2.53;;
18447;SDS011;9353;50.956;6.920;2022-11-22T04:27:55;5.00;;;1.87;;
18447;SDS011;9353;50.956;6.920;2022-11-22T04:30:23;2.93;;;2.10;;
18447;SDS011;9353;50.956;6.920;2022-11-22T04:33:12;3.90;;;1.97;;
18447;SDS011;9353;50.956;6.920;2022-11-22T04:35:38;4.17;;;1.90;;
18447;SDS011;9353;50.956;6.920;2022-11-22T04:38:05;7.07;;;2.00;;
18447;SDS011;9353;50.956;6.920;2022-11-22T04:40:34;7.27;;;2.20;;
18447;SDS011;9353;50.956;6.920;2022-11-22T04:43:03;3.00;;;1.67;;
18447;SDS011;9353;50.956;6.920;2022-11-22T04:45:47;4.30;;;1.80;;
18447;SDS011;9353;50.956;6.920;2022-11-22T04:48:15;3.33;;;2.23;;
18447;SDS011;9353;50.956;6.920;2022-11-22T04:50:42;3.77;;;1.90;;
18447;SDS011;9353;50.956;6.920;2022-11-22T04:53:27;5.33;;;1.87;;
18447;SDS011;9353;50.956;6.920;2022-11-22T04:55:56;3.20;;;2.53;;
18447;SDS011;9353;50.956;6.920;2022-11-22T04:58:23;9.97;;;2.40;;
18447;SDS011;9353;50.956;6.920;2022-11-22T05:00:50;2.57;;;2.20;;
18447;SDS011;9353;50.956;6.920;2022-11-22T05:03:17;3.20;;;2.33;;
18447;SDS011;9353;50.956;6.920;2022-11-22T05:05:45;4.83;;;3.20;;
18447;SDS011;9353;50.956;6.920;2022-11-22T05:08:12;5.23;;;2.20;;
18447;SDS011;9353;50.956;6.920;2022-11-22T05:10:39;2.17;;;2.00;;
18447;SDS011;9353;50.956;6.920;2022-11-22T05:13:24;5.67;;;2.33;;
18447;SDS011;9353;50.956;6.920;2022-11-22T05:15:52;3.53;;;2.20;;
18447;SDS011;9353;50.956;6.920;2022-11-22T05:18:19;4.70;;;2.30;;
18447;SDS011;9353;50.956;6.920;2022-11-22T05:20:47;5.77;;;2.10;;
18447;SDS011;9353;50.956;6.920;2022-11-22T05:23:14;4.80;;;1.80;;
18447;SDS011;9353;50.956;6.920;2022-11-22T05:25:59;5.90;;;1.93;;
18447;SDS011;9353;50.956;6.920;2022-11-22T05:28:28;8.33;;;2.20;;
18447;SDS011;9353;50.956;6.920;2022-11-22T05:30:55;7.60;;;2.30;;
18447;SDS011;9353;50.956;6.920;2022-11-22T05:33:22;10.13;;;2.73;;
18447;SDS011;9353;50.956;6.920;2022-11-22T05:35:49;3.60;;;2.03;;
18447;SDS011;9353;50.956;6.920;2022-11-22T05:38:16;4.07;;;2.10;;
18447;SDS011;9353;50.956;6.920;2022-11-22T05:40:43;5.17;;;1.83;;
18447;SDS011;9353;50.956;6.920;2022-11-22T05:43:10;3.33;;;2.17;;
18447;SDS011;9353;50.956;6.920;2022-11-22T05:45:39;8.03;;;2.30;;
18447;SDS011;9353;50.956;6.920;2022-11-22T05:48:06;2.93;;;2.00;;
18447;SDS011;9353;50.956;6.920;2022-11-22T05:50:33;2.83;;;1.60;;
18447;SDS011;9353;50.956;6.920;2022-11-22T05:53:00;7.40;;;2.20;;
18447;SDS011;9353;50.956;6.920;2022-11-22T05:55:28;4.17;;;2.13;;
18447;SDS011;9353;50.956;6.920;2022-11-22T05:57:55;4.87;;;2.40;;
18447;SDS011;9353;50.956;6.920;2022-11-22T06:00:25;4.77;;;1.70;;
18447;SDS011;9353;50.956;6.920;2022-11-22T06:02:57;4.47;;;2.27;;
18447;SDS011;9353;50.956;6.920;2022-11-22T06:05:25;6.97;;;2.53;;
18447;SDS011;9353;50.956;6.920;2022-11-22T06:07:52;6.03;;;1.97;;
18447;SDS011;9353;50.956;6.920;2022-11-22T06:10:19;5.40;;;2.30;;
18447;SDS011;9353;50.956;6.920;2022-11-22T06:12:46;8.10;;;2.13;;
18447;SDS011;9353;50.956;6.920;2022-11-22T06:15:13;5.67;;;2.13;;
18447;SDS011;9353;50.956;6.920;2022-11-22T06:17:40;6.57;;;2.40;;
18447;SDS011;9353;50.956;6.920;2022-11-22T06:20:10;8.53;;;1.87;;
18447;SDS011;9353;50.956;6.920;2022-11-22T06:22:37;2.63;;;2.20;;
18447;SDS011;9353;50.956;6.920;2022-11-22T06:25:04;7.43;;;2.00;;
18447;SDS011;9353;50.956;6.920;2022-11-22T06:27:31;4.97;;;3.00;;
18447;SDS011;9353;50.956;6.920;2022-11-22T06:29:58;10.50;;;2.47;;
18447;SDS011;9353;50.956;6.920;2022-11-22T06:32:25;3.83;;;2.70;;
18447;SDS011;9353;50.956;6.920;2022-11-22T06:34:53;10.00;;;4.07;;
18447;SDS011;9353;50.956;6.920;2022-11-22T06:37:21;9.97;;;2.97;;
18447;SDS011;9353;50.956;6.920;2022-11-22T06:39:48;4.30;;;2.47;;
18447;SDS011;9353;50.956;6.920;2022-11-22T06:42:15;5.17;;;2.63;;
18447;SDS011;9353;50.956;6.920;2022-11-22T06:44:42;5.77;;;2.77;;
18447;SDS011;9353;50.956;6.920;2022-11-22T06:47:09;6.53;;;2.83;;
18447;SDS011;9353;50.956;6.920;2022-11-22T06:49:36;4.80;;;2.50;;
18447;SDS011;9353;50.956;6.920;2022-11-22T06:52:04;10.60;;;2.70;;
18447;SDS011;9353;50.956;6.920;2022-11-22T06:54:32;5.33;;;2.07;;
18447;SDS011;9353;50.956;6.920;2022-11-22T06:56:59;4.47;;;2.10;;
18447;SDS011;9353;50.956;6.920;2022-11-22T06:59:26;6.20;;;2.23;;
18447;SDS011;9353;50.956;6.920;2022-11-22T07:01:53;8.50;;;2.30;;
18447;SDS011;9353;50.956;6.920;2022-11-22T07:04:20;6.03;;;2.70;;
18447;SDS011;9353;50.956;6.920;2022-11-22T07:06:48;5.60;;;2.47;;
18447;SDS011;9353;50.956;6.920;2022-11-22T07:09:15;7.00;;;2.20;;
18447;SDS011;9353;50.956;6.920;2022-11-22T07:11:43;4.43;;;2.37;;
18447;SDS011;9353;50.956;6.920;2022-11-22T07:14:10;4.10;;;2.33;;
18447;SDS011;9353;50.956;6.920;2022-11-22T07:16:37;3.73;;;2.60;;
18447;SDS011;9353;50.956;6.920;2022-11-22T07:19:05;8.70;;;2.70;;
18447;SDS011;9353;50.956;6.920;2022-11-22T07:21:33;6.27;;;2.43;;
18447;SDS011;9353;50.956;6.920;2022-11-22T07:24:02;5.23;;;2.67;;
18447;SDS011;9353;50.956;6.920;2022-11-22T07:26:29;2.97;;;2.33;;
18447;SDS011;9353;50.956;6.920;2022-11-22T07:28:58;5.33;;;2.53;;
18447;SDS011;9353;50.956;6.920;2022-11-22T07:31:25;4.27;;;2.27;;
18447;SDS011;9353;50.956;6.920;2022-11-22T07:33:54;5.50;;;2.47;;
18447;SDS011;9353;50.956;6.920;2022-11-22T07:36:21;7.60;;;2.20;;
18447;SDS011;9353;50.956;6.920;2022-11-22T07:38:49;3.77;;;2.63;;
18447;SDS011;9353;50.956;6.920;2022-11-22T07:41:16;7.77;;;2.67;;
18447;SDS011;9353;50.956;6.920;2022-11-22T07:43:44;5.97;;;2.43;;
18447;SDS011;9353;50.956;6.920;2022-11-22T07:46:15;6.23;;;2.60;;
18447;SDS011;9353;50.956;6.920;2022-11-22T07:48:44;5.50;;;2.60;;
18447;SDS011;9353;50.956;6.920;2022-11-22T07:51:11;4.43;;;2.80;;
18447;SDS011;9353;50.956;6.920;2022-11-22T07:53:38;8.87;;;2.53;;
18447;SDS011;9353;50.956;6.920;2022-11-22T07:56:05;12.43;;;3.37;;
18447;SDS011;9353;50.956;6.920;2022-11-22T07:58:33;3.47;;;2.13;;
18447;SDS011;9353;50.956;6.920;2022-11-22T08:01:03;6.03;;;2.17;;
18447;SDS011;9353;50.956;6.920;2022-11-22T08:03:32;5.33;;;2.27;;
18447;SDS011;9353;50.956;6.920;2022-11-22T08:05:59;4.53;;;2.50;;
18447;SDS011;9353;50.956;6.920;2022-11-22T08:08:27;6.00;;;2.50;;
18447;SDS011;9353;50.956;6.920;2022-11-22T08:10:54;3.83;;;2.10;;
18447;SDS011;9353;50.956;6.920;2022-11-22T08:13:21;5.60;;;2.70;;
18447;SDS011;9353;50.956;6.920;2022-11-22T08:15:48;3.97;;;2.33;;
18447;SDS011;9353;50.956;6.920;2022-11-22T08:18:15;13.67;;;3.13;;
18447;SDS011;9353;50.956;6.920;2022-11-22T08:20:44;5.63;;;2.00;;
18447;SDS011;9353;50.956;6.920;2022-11-22T08:23:11;6.57;;;1.93;;
18447;SDS011;9353;50.956;6.920;2022-11-22T08:25:38;7.00;;;2.10;;
18447;SDS011;9353;50.956;6.920;2022-11-22T08:28:05;7.17;;;2.27;;
18447;SDS011;9353;50.956;6.920;2022-11-22T08:30:32;8.80;;;2.73;;
18447;SDS011;9353;50.956;6.920;2022-11-22T08:33:00;8.60;;;2.07;;
18447;SDS011;9353;50.956;6.920;2022-11-22T08:35:27;9.93;;;2.77;;
18447;SDS011;9353;50.956;6.920;2022-11-22T08:37:56;2.40;;;1.73;;
18447;SDS011;9353;50.956;6.920;2022-11-22T08:40:23;6.33;;;1.87;;
18447;SDS011;9353;50.956;6.920;2022-11-22T08:42:52;4.97;;;2.17;;
18447;SDS011;9353;50.956;6.920;2022-11-22T08:45:19;6.57;;;2.40;;
18447;SDS011;9353;50.956;6.920;2022-11-22T08:47:46;3.57;;;2.27;;
18447;SDS011;9353;50.956;6.920;2022-11-22T08:50:14;7.23;;;2.07;;
18447;SDS011;9353;50.956;6.920;2022-11-22T08:52:41;6.90;;;1.67;;
18447;SDS011;9353;50.956;6.920;2022-11-22T08:55:09;2.70;;;1.60;;
18447;SDS011;9353;50.956;6.920;2022-11-22T08:57:36;5.40;;;1.63;;
18447;SDS011;9353;50.956;6.920;2022-11-22T09:00:04;3.43;;;1.80;;
18447;SDS011;9353;50.956;6.920;2022-11-22T09:02:31;2.23;;;1.53;;
18447;SDS011;9353;50.956;6.920;2022-11-22T09:04:59;2.50;;;1.40;;
18447;SDS011;9353;50.956;6.920;2022-11-22T09:07:26;4.53;;;1.80;;
18447;SDS011;9353;50.956;6.920;2022-11-22T09:09:53;2.43;;;1.90;;
18447;SDS011;9353;50.956;6.920;2022-11-22T09:12:22;4.37;;;2.00;;
18447;SDS011;9353;50.956;6.920;2022-11-22T09:14:49;4.83;;;1.47;;
18447;SDS011;9353;50.956;6.920;2022-11-22T09:17:16;3.37;;;2.13;;
18447;SDS011;9353;50.956;6.920;2022-11-22T09:19:43;1.83;;;1.47;;
18447;SDS011;9353;50.956;6.920;2022-11-22T09:22:10;3.83;;;1.40;;
18447;SDS011;9353;50.956;6.920;2022-11-22T09:24:38;2.00;;;1.47;;
18447;SDS011;9353;50.956;6.920;2022-11-22T09:27:05;3.97;;;1.53;;
18447;SDS011;9353;50.956;6.920;2022-11-22T09:29:33;4.83;;;1.60;;
18447;SDS011;9353;50.956;6.920;2022-11-22T09:32:00;3.63;;;1.20;;
18447;SDS011;9353;50.956;6.920;2022-11-22T09:34:28;4.57;;;2.13;;
18447;SDS011;9353;50.956;6.920;2022-11-22T09:36:55;7.43;;;1.43;;
18447;SDS011;9353;50.956;6.920;2022-11-22T09:39:22;3.90;;;1.60;;
18447;SDS011;9353;50.956;6.920;2022-11-22T09:41:59;2.40;;;1.37;;
18447;SDS011;9353;50.956;6.920;2022-11-22T09:44:31;2.47;;;1.43;;
18447;SDS011;9353;50.956;6.920;2022-11-22T09:47:04;3.47;;;1.30;;
18447;SDS011;9353;50.956;6.920;2022-11-22T09:49:37;2.50;;;1.10;;
18447;SDS011;9353;50.956;6.920;2022-11-22T09:52:07;2.83;;;1.10;;
18447;SDS011;9353;50.956;6.920;2022-11-22T09:54:38;4.97;;;1.70;;
18447;SDS011;9353;50.956;6.920;2022-11-22T09:57:08;1.80;;;1.20;;
18447;SDS011;9353;50.956;6.920;2022-11-22T09:59:36;3.43;;;1.00;;
18447;SDS011;9353;50.956;6.920;2022-11-22T10:02:09;6.33;;;1.20;;
18447;SDS011;9353;50.956;6.920;2022-11-22T10:04:39;4.33;;;1.53;;
18447;SDS011;9353;50.956;6.920;2022-11-22T10:07:09;4.67;;;1.50;;
18447;SDS011;9353;50.956;6.920;2022-11-22T10:09:39;4.17;;;1.53;;
18447;SDS011;9353;50.956;6.920;2022-11-22T10:12:08;2.63;;;1.63;;
18447;SDS011;9353;50.956;6.920;2022-11-22T10:14:39;4.10;;;1.87;;
18447;SDS011;9353;50.956;6.920;2022-11-22T10:17:17;4.73;;;1.10;;
18447;SDS011;9353;50.956;6.920;2022-11-22T10:19:49;2.10;;;1.23;;
18447;SDS011;9353;50.956;6.920;2022-11-22T10:22:18;1.30;;;1.00;;
18447;SDS011;9353;50.956;6.920;2022-11-22T10:24:45;3.40;;;1.37;;
18447;SDS011;9353;50.956;6.920;2022-11-22T10:27:12;2.03;;;1.07;;
18447;SDS011;9353;50.956;6.920;2022-11-22T10:29:41;1.70;;;1.10;;
18447;SDS011;9353;50.956;6.920;2022-11-22T10:32:10;2.93;;;1.97;;
18447;SDS011;9353;50.956;6.920;2022-11-22T10:34:46;2.10;;;0.80;;
18447;SDS011;9353;50.956;6.920;2022-11-22T10:37:22;3.13;;;1.00;;
18447;SDS011;9353;50.956;6.920;2022-11-22T10:39:54;1.57;;;1.07;;
18447;SDS011;9353;50.956;6.920;2022-11-22T10:42:27;2.93;;;1.27;;
18447;SDS011;9353;50.956;6.920;2022-11-22T10:45:00;1.70;;;1.00;;
18447;SDS011;9353;50.956;6.920;2022-11-22T10:47:36;1.00;;;1.00;;
18447;SDS011;9353;50.956;6.920;2022-11-22T10:50:07;2.20;;;1.33;;
18447;SDS011;9353;50.956;6.920;2022-11-22T10:52:38;2.27;;;1.40;;
18447;SDS011;9353;50.956;6.920;2022-11-22T10:55:13;3.50;;;1.30;;
18447;SDS011;9353;50.956;6.920;2022-11-22T10:57:45;2.30;;;1.23;;
18447;SDS011;9353;50.956;6.920;2022-11-22T11:00:15;2.93;;;1.17;;
18447;SDS011;9353;50.956;6.920;2022-11-22T11:02:52;1.63;;;0.73;;
18447;SDS011;9353;50.956;6.920;2022-11-22T11:05:24;1.93;;;1.10;;
18447;SDS011;9353;50.956;6.920;2022-11-22T11:07:55;1.97;;;1.23;;
18447;SDS011;9353;50.956;6.920;2022-11-22T11:10:22;1.53;;;0.90;;
18447;SDS011;9353;50.956;6.920;2022-11-22T11:12:53;1.27;;;0.93;;
18447;SDS011;9353;50.956;6.920;2022-11-22T11:15:22;2.03;;;1.00;;
18447;SDS011;9353;50.956;6.920;2022-11-22T11:17:52;0.97;;;0.80;;
18447;SDS011;9353;50.956;6.920;2022-11-22T11:20:21;1.33;;;0.77;;
18447;SDS011;9353;50.956;6.920;2022-11-22T11:22:50;0.73;;;0.73;;
18447;SDS011;9353;50.956;6.920;2022-11-22T11:25:30;4.30;;;0.90;;
18447;SDS011;9353;50.956;6.920;2022-11-22T11:27:58;0.87;;;0.83;;
18447;SDS011;9353;50.956;6.920;2022-11-22T11:30:27;1.53;;;0.83;;
18447;SDS011;9353;50.956;6.920;2022-11-22T11:32:54;1.23;;;0.70;;
18447;SDS011;9353;50.956;6.920;2022-11-22T11:35:23;2.77;;;0.80;;
18447;SDS011;9353;50.956;6.920;2022-11-22T11:37:54;1.07;;;0.80;;
18447;SDS011;9353;50.956;6.920;2022-11-22T11:40:24;0.63;;;0.60;;
18447;SDS011;9353;50.956;6.920;2022-11-22T11:45:34;0.70;;;0.70;;
18447;SDS011;9353;50.956;6.920;2022-11-22T11:48:01;0.97;;;0.87;;
18447;SDS011;9353;50.956;6.920;2022-11-22T11:50:28;2.37;;;1.00;;
18447;SDS011;9353;50.956;6.920;2022-11-22T11:53:02;0.80;;;0.63;;
18447;SDS011;9353;50.956;6.920;2022-11-22T11:55:30;1.27;;;0.63;;
18447;SDS011;9353;50.956;6.920;2022-11-22T11:57:57;2.57;;;1.23;;
18447;SDS011;9353;50.956;6.920;2022-11-22T12:00:25;1.27;;;0.87;;
18447;SDS011;9353;50.956;6.920;2022-11-22T12:02:56;0.63;;;0.50;;
18447;SDS011;9353;50.956;6.920;2022-11-22T12:05:25;1.07;;;0.83;;
18447;SDS011;9353;50.956;6.920;2022-11-22T12:07:52;1.00;;;0.70;;
18447;SDS011;9353;50.956;6.920;2022-11-22T12:10:28;0.73;;;0.73;;
18447;SDS011;9353;50.956;6.920;2022-11-22T12:12:57;0.87;;;0.60;;
18447;SDS011;9353;50.956;6.920;2022-11-22T12:15:26;0.83;;;0.50;;
18447;SDS011;9353;50.956;6.920;2022-11-22T12:17:58;1.50;;;0.70;;
18447;SDS011;9353;50.956;6.920;2022-11-22T12:20:28;0.70;;;0.70;;
18447;SDS011;9353;50.956;6.920;2022-11-22T12:23:02;2.00;;;1.20;;
18447;SDS011;9353;50.956;6.920;2022-11-22T12:25:34;2.07;;;1.47;;
18447;SDS011;9353;50.956;6.920;2022-11-22T12:28:03;1.33;;;1.23;;
18447;SDS011;9353;50.956;6.920;2022-11-22T12:30:36;0.97;;;0.90;;
18447;SDS011;9353;50.956;6.920;2022-11-22T12:33:05;1.00;;;0.90;;
18447;SDS011;9353;50.956;6.920;2022-11-22T12:35:39;0.57;;;0.57;;
18447;SDS011;9353;50.956;6.920;2022-11-22T12:38:08;1.60;;;0.90;;
18447;SDS011;9353;50.956;6.920;2022-11-22T12:40:39;1.17;;;1.00;;
18447;SDS011;9353;50.956;6.920;2022-11-22T12:43:10;1.10;;;0.83;;
18447;SDS011;9353;50.956;6.920;2022-11-22T12:45:41;1.03;;;0.80;;
18447;SDS011;9353;50.956;6.920;2022-11-22T12:48:12;1.03;;;0.93;;
18447;SDS011;9353;50.956;6.920;2022-11-22T12:50:42;2.43;;;0.83;;
18447;SDS011;9353;50.956;6.920;2022-11-22T12:53:11;0.83;;;0.83;;
18447;SDS011;9353;50.956;6.920;2022-11-22T12:55:42;0.80;;;0.80;;
18447;SDS011;9353;50.956;6.920;2022-11-22T12:58:13;1.87;;;0.87;;
18447;SDS011;9353;50.956;6.920;2022-11-22T13:00:45;0.80;;;0.80;;
18447;SDS011;9353;50.956;6.920;2022-11-22T13:03:14;0.93;;;0.80;;
18447;SDS011;9353;50.956;6.920;2022-11-22T13:05:44;1.77;;;0.90;;
18447;SDS011;9353;50.956;6.920;2022-11-22T13:08:13;1.50;;;1.20;;
18447;SDS011;9353;50.956;6.920;2022-11-22T13:10:43;1.57;;;1.43;;
18447;SDS011;9353;50.956;6.920;2022-11-22T13:13:12;2.50;;;0.90;;
18447;SDS011;9353;50.956;6.920;2022-11-22T13:15:43;1.40;;;1.20;;
18447;SDS011;9353;50.956;6.920;2022-11-22T13:18:11;2.27;;;1.03;;
18447;SDS011;9353;50.956;6.920;2022-11-22T13:20:42;1.03;;;0.93;;
18447;SDS011;9353;50.956;6.920;2022-11-22T13:23:18;2.43;;;0.90;;
18447;SDS011;9353;50.956;6.920;2022-11-22T13:25:55;2.40;;;0.70;;
18447;SDS011;9353;50.956;6.920;2022-11-22T13:28:25;3.20;;;0.83;;
18447;SDS011;9353;50.956;6.920;2022-11-22T13:31:03;0.60;;;0.60;;
18447;SDS011;9353;50.956;6.920;2022-11-22T13:33:31;0.90;;;0.90;;
18447;SDS011;9353;50.956;6.920;2022-11-22T13:38:41;0.60;;;0.60;;
18447;SDS011;9353;50.956;6.920;2022-11-22T13:41:20;0.60;;;0.60;;
18447;SDS011;9353;50.956;6.920;2022-11-22T13:43:49;1.77;;;0.70;;
18447;SDS011;9353;50.956;6.920;2022-11-22T13:49:06;0.50;;;0.50;;
18447;SDS011;9353;50.956;6.920;2022-11-22T13:54:38;0.70;;;0.67;;
18447;SDS011;9353;50.956;6.920;2022-11-22T13:57:22;0.60;;;0.60;;
18447;SDS011;9353;50.956;6.920;2022-11-22T14:02:31;0.80;;;0.80;;
18447;SDS011;9353;50.956;6.920;2022-11-22T14:04:59;0.53;;;0.50;;
18447;SDS011;9353;50.956;6.920;2022-11-22T14:07:33;0.60;;;0.60;;
18447;SDS011;9353;50.956;6.920;2022-11-22T14:10:22;1.10;;;0.67;;
18447;SDS011;9353;50.956;6.920;2022-11-22T14:12:56;0.50;;;0.50;;
18447;SDS011;9353;50.956;6.920;2022-11-22T14:15:37;0.50;;;0.50;;
18447;SDS011;9353;50.956;6.920;2022-11-22T14:18:08;0.73;;;0.73;;
18447;SDS011;9353;50.956;6.920;2022-11-22T14:20:41;0.90;;;0.83;;
18447;SDS011;9353;50.956;6.920;2022-11-22T14:23:12;1.23;;;0.63;;
18447;SDS011;9353;50.956;6.920;2022-11-22T14:25:44;4.33;;;0.90;;
18447;SDS011;9353;50.956;6.920;2022-11-22T14:28:20;1.83;;;0.50;;
18447;SDS011;9353;50.956;6.920;2022-11-22T14:30:53;1.00;;;0.90;;
18447;SDS011;9353;50.956;6.920;2022-11-22T14:33:23;0.63;;;0.60;;
18447;SDS011;9353;50.956;6.920;2022-11-22T14:38:36;0.40;;;0.40;;
18447;SDS011;9353;50.956;6.920;2022-11-22T14:43:51;1.53;;;0.83;;
18447;SDS011;9353;50.956;6.920;2022-11-22T14:46:20;0.60;;;0.60;;
18447;SDS011;9353;50.956;6.920;2022-11-22T14:48:48;0.63;;;0.63;;
18447;SDS011;9353;50.956;6.920;2022-11-22T14:51:19;0.70;;;0.70;;
18447;SDS011;9353;50.956;6.920;2022-11-22T14:53:50;0.70;;;0.70;;
18447;SDS011;9353;50.956;6.920;2022-11-22T14:56:21;0.50;;;0.50;;
18447;SDS011;9353;50.956;6.920;2022-11-22T14:58:55;0.57;;;0.57;;
18447;SDS011;9353;50.956;6.920;2022-11-22T15:01:41;1.70;;;1.60;;
18447;SDS011;9353;50.956;6.920;2022-11-22T15:04:24;2.40;;;2.23;;
18447;SDS011;9353;50.956;6.920;2022-11-22T15:06:56;7.13;;;5.90;;
18447;SDS011;9353;50.956;6.920;2022-11-22T15:09:39;4.43;;;4.03;;
18447;SDS011;9353;50.956;6.920;2022-11-22T15:12:12;1.37;;;1.37;;
18447;SDS011;9353;50.956;6.920;2022-11-22T15:17:25;1.20;;;1.20;;
18447;SDS011;9353;50.956;6.920;2022-11-22T15:19:54;6.43;;;4.73;;
18447;SDS011;9353;50.956;6.920;2022-11-22T15:22:24;2.10;;;2.00;;
18447;SDS011;9353;50.956;6.920;2022-11-22T15:24:52;1.30;;;1.20;;
18447;SDS011;9353;50.956;6.920;2022-11-22T15:27:21;1.10;;;1.10;;
18447;SDS011;9353;50.956;6.920;2022-11-22T15:32:33;0.80;;;0.80;;
18447;SDS011;9353;50.956;6.920;2022-11-22T15:35:00;0.80;;;0.73;;
18447;SDS011;9353;50.956;6.920;2022-11-22T15:37:29;0.87;;;0.70;;